Time;durP1;ratioP1;P1;durP2;ratioP2;P2;SDS_P1;SDS_P2;PMS_P1;PMS_P2;Temp;Humidity;BMP_temperature;BMP_pressure;BME280_temperature;BME280_humidity;BME280_pressure;Samples;Min_cycle;Max_cycle;Signal;HPM_P1;HPM_P2
2022/05/16 00:01:06;;;;;;;9.07;3.50;;;;;;;17.15;60.73;101395.25;4991011;28;20060;-59
2022/05/16 00:03:34;;;;;;;13.18;3.20;;;;;;;17.08;60.84;101394.09;4991371;28;20058;-60
2022/05/16 00:06:04;;;;;;;13.15;3.20;;;;;;;17.05;60.79;101392.53;4990860;28;20077;-59
2022/05/16 00:08:32;;;;;;;11.80;3.38;;;;;;;17.04;61.17;101393.50;4991738;28;20069;-59
2022/05/16 00:11:00;;;;;;;11.32;3.30;;;;;;;16.96;61.44;101390.63;4988899;28;20113;-59
2022/05/16 00:13:29;;;;;;;9.27;3.22;;;;;;;17.03;61.20;101390.00;4991439;28;20763;-59
2022/05/16 00:15:57;;;;;;;10.45;3.20;;;;;;;16.94;61.55;101387.28;4990799;28;20121;-59
2022/05/16 00:18:25;;;;;;;13.18;4.35;;;;;;;16.93;62.00;101386.41;4991651;28;20089;-59
2022/05/16 00:20:53;;;;;;;12.90;4.13;;;;;;;16.96;61.81;101385.31;4994629;28;20054;-59
2022/05/16 00:23:22;;;;;;;11.40;3.67;;;;;;;16.86;61.96;101393.19;4994594;28;20062;-58
2022/05/16 00:25:51;;;;;;;10.20;3.92;;;;;;;16.78;62.67;101379.72;4994312;28;20058;-59
2022/05/16 00:28:19;;;;;;;12.77;4.20;;;;;;;16.71;62.89;101382.88;4994211;28;20046;-59
2022/05/16 00:30:47;;;;;;;15.15;4.20;;;;;;;16.66;63.27;101379.75;4990609;28;20100;-59
2022/05/16 00:33:15;;;;;;;10.98;3.60;;;;;;;16.65;63.11;101370.09;4990704;28;20058;-58
2022/05/16 00:35:43;;;;;;;12.43;4.40;;;;;;;16.63;63.68;101363.22;4990632;28;20072;-59
2022/05/16 00:38:11;;;;;;;15.10;4.72;;;;;;;16.59;63.79;101357.31;4990532;28;20042;-59
2022/05/16 00:40:40;;;;;;;15.10;5.22;;;;;;;16.57;63.70;101359.28;4988794;28;20831;-59
2022/05/16 00:43:11;;;;;;;15.60;5.72;;;;;;;16.52;63.83;101359.66;4993820;28;20065;-59
2022/05/16 00:45:40;;;;;;;16.88;7.72;;;;;;;16.51;64.15;101362.41;4994349;28;20048;-59
2022/05/16 00:48:08;;;;;;;18.42;7.63;;;;;;;16.53;64.52;101360.50;4994364;28;20074;-59
2022/05/16 00:50:39;;;;;;;18.08;8.38;;;;;;;16.47;64.66;101363.66;4993890;28;20046;-59
2022/05/16 00:53:09;;;;;;;19.33;9.15;;;;;;;16.40;65.03;101358.00;4993894;28;20557;-59
2022/05/16 00:55:38;;;;;;;19.00;8.43;;;;;;;16.42;64.50;101360.53;4987883;28;20058;-59
2022/05/16 00:58:13;;;;;;;23.17;8.85;;;;;;;16.33;65.10;101355.03;4990806;28;20061;-59
2022/05/16 01:00:44;;;;;;;18.23;8.68;;;;;;;16.32;65.47;101349.81;4990418;28;20406;-58
2022/05/16 01:06:00;;;;;;;22.10;9.80;;;;;;;16.25;66.10;101353.94;4990637;28;20109;-59
2022/05/16 01:08:30;;;;;;;21.15;9.88;;;;;;;16.29;65.75;101350.94;4990995;28;20043;-59
2022/05/16 01:11:03;;;;;;;21.40;9.50;;;;;;;16.18;66.09;101342.97;4987219;28;20042;-59
2022/05/16 01:13:32;;;;;;;20.27;8.82;;;;;;;16.15;66.65;101338.75;4991036;28;20452;-58
2022/05/16 01:16:02;;;;;;;20.80;8.10;;;;;;;16.09;66.73;101343.72;4992600;28;20116;-58
2022/05/16 01:18:31;;;;;;;19.83;7.55;;;;;;;16.14;66.56;101333.59;4993716;28;20437;-58
2022/05/16 01:21:13;;;;;;;17.25;7.72;;;;;;;16.08;66.90;101329.63;4992328;28;20086;-58
2022/05/16 01:23:46;;;;;;;16.15;7.32;;;;;;;16.11;66.84;101331.19;4989898;28;20663;-58
2022/05/16 01:26:18;;;;;;;15.50;6.78;;;;;;;16.16;66.51;101327.19;4991092;28;20038;-58
2022/05/16 01:28:46;;;;;;;14.85;6.15;;;;;;;16.09;66.65;101328.66;4991944;28;20101;-57
2022/05/16 01:31:15;;;;;;;15.30;7.05;;;;;;;16.14;66.61;101326.50;4993269;28;20053;-58
2022/05/16 01:33:43;;;;;;;14.90;7.05;;;;;;;16.03;67.29;101332.66;4993365;28;20512;-58
2022/05/16 01:36:11;;;;;;;14.10;6.82;;;;;;;16.01;67.62;101337.22;4993436;28;20047;-58
2022/05/16 01:38:41;;;;;;;15.70;6.95;;;;;;;15.97;67.13;101338.44;4992915;28;20104;-58
2022/05/16 01:41:13;;;;;;;17.75;7.63;;;;;;;15.94;67.85;101337.84;4993145;28;20109;-58
2022/05/16 01:43:43;;;;;;;18.65;7.75;;;;;;;15.94;67.81;101337.84;4989732;28;20104;-58
2022/05/16 01:46:13;;;;;;;16.02;7.70;;;;;;;15.87;68.16;101334.84;4990830;28;20062;-58
2022/05/16 01:48:41;;;;;;;16.27;6.88;;;;;;;15.94;67.98;101335.19;4992880;28;20042;-57
2022/05/16 01:51:12;;;;;;;15.68;7.15;;;;;;;15.92;68.48;101337.97;4993260;28;20453;-58
2022/05/16 01:53:42;;;;;;;17.02;6.65;;;;;;;15.87;68.28;101324.25;4990385;28;20075;-58
2022/05/16 01:56:12;;;;;;;16.25;6.55;;;;;;;15.86;68.72;101322.56;4987756;28;20666;-58
2022/05/16 01:58:41;;;;;;;14.95;5.88;;;;;;;15.88;68.36;101323.25;4989533;28;20046;-58
2022/05/16 02:01:10;;;;;;;14.50;5.07;;;;;;;15.86;68.73;101318.09;4989413;28;20038;-59
2022/05/16 02:03:39;;;;;;;15.93;6.60;;;;;;;15.83;68.92;101325.47;4989288;28;20046;-59
2022/05/16 02:06:08;;;;;;;18.00;6.32;;;;;;;15.84;69.17;101317.38;4989080;28;20554;-58
2022/05/16 02:08:37;;;;;;;18.13;6.85;;;;;;;15.82;69.04;101318.47;4988791;28;20062;-58
2022/05/16 02:11:06;;;;;;;17.65;7.20;;;;;;;15.75;69.73;101315.44;4991564;28;20058;-59
2022/05/16 02:13:38;;;;;;;17.13;6.95;;;;;;;15.75;69.55;101309.25;4989170;28;20061;-59
2022/05/16 02:16:07;;;;;;;16.85;7.70;;;;;;;15.74;69.60;101304.94;4989571;28;20054;-59
2022/05/16 02:18:36;;;;;;;20.25;8.68;;;;;;;15.74;69.75;101302.28;4989277;28;20053;-58
2022/05/16 02:26:35;;;;;;;19.98;8.95;;;;;;;15.57;70.95;101291.22;4986091;28;20066;-59
2022/05/16 02:29:05;;;;;;;22.48;9.43;;;;;;;15.57;71.19;101282.41;4991608;28;20053;-59
2022/05/16 02:31:33;;;;;;;19.38;8.40;;;;;;;15.54;71.71;101292.31;4989113;28;20093;-58
2022/05/16 02:34:01;;;;;;;16.63;7.78;;;;;;;15.51;71.60;101281.94;4988697;28;20054;-59
2022/05/16 02:36:29;;;;;;;18.23;7.93;;;;;;;15.46;71.35;101276.16;4988766;28;20065;-59
2022/05/16 02:38:57;;;;;;;19.65;8.23;;;;;;;15.50;71.60;101277.63;4988531;28;20074;-59
2022/05/16 02:41:25;;;;;;;13.45;6.85;;;;;;;15.47;71.94;101267.22;4987090;28;20058;-59
2022/05/16 02:43:53;;;;;;;18.02;7.45;;;;;;;15.45;71.85;101268.34;4988973;28;20050;-59
2022/05/16 02:46:23;;;;;;;16.55;7.28;;;;;;;15.49;71.76;101267.13;4989291;28;20478;-58
2022/05/16 02:48:51;;;;;;;15.90;5.72;;;;;;;15.47;71.56;101275.19;4988551;28;20589;-59
2022/05/16 02:51:19;;;;;;;13.23;5.72;;;;;;;15.43;71.64;101265.78;4988877;28;20390;-59
2022/05/16 02:53:47;;;;;;;14.88;5.90;;;;;;;15.40;72.05;101265.22;4988707;28;20105;-59
2022/05/16 02:56:15;;;;;;;11.68;5.60;;;;;;;15.36;71.95;101270.72;4986808;28;20437;-58
2022/05/16 02:58:43;;;;;;;14.30;6.50;;;;;;;15.36;71.80;101257.47;4989047;28;20046;-59
2022/05/16 03:01:11;;;;;;;17.58;8.23;;;;;;;15.26;72.90;101267.13;4990265;28;20105;-58
2022/05/16 03:03:42;;;;;;;17.10;8.10;;;;;;;15.27;72.16;101262.66;4992198;28;20050;-59
2022/05/16 03:06:11;;;;;;;17.83;8.85;;;;;;;15.23;73.07;101263.88;4992339;28;20057;-59
2022/05/16 03:08:39;;;;;;;18.20;8.63;;;;;;;15.27;72.72;101260.00;4990112;28;20445;-59
2022/05/16 03:11:08;;;;;;;20.73;9.25;;;;;;;15.25;73.16;101259.31;4986167;28;20050;-59
2022/05/16 03:13:36;;;;;;;17.50;9.32;;;;;;;15.19;73.15;101247.38;4991502;28;20061;-59
2022/05/16 03:16:05;;;;;;;20.77;9.80;;;;;;;15.17;73.79;101251.94;4989772;28;20046;-57
2022/05/16 03:18:33;;;;;;;17.83;9.20;;;;;;;15.13;73.72;101245.22;4992206;28;20402;-58
2022/05/16 03:21:03;;;;;;;24.15;10.55;;;;;;;15.20;73.19;101246.41;4991862;28;20807;-58
2022/05/16 03:23:31;;;;;;;20.95;10.45;;;;;;;15.13;74.07;101246.03;4992499;28;20497;-57
2022/05/16 03:25:59;;;;;;;18.80;9.70;;;;;;;15.07;73.87;101241.22;4990955;28;20050;-58
2022/05/16 03:28:27;;;;;;;20.10;10.40;;;;;;;15.09;74.00;101234.00;4995584;28;20050;-57
2022/05/16 03:30:57;;;;;;;18.88;9.35;;;;;;;15.08;74.52;101234.13;4995636;28;20649;-59
2022/05/16 03:33:25;;;;;;;18.38;9.43;;;;;;;15.08;74.02;101234.13;4992996;28;20054;-59
2022/05/16 03:35:55;;;;;;;22.17;9.93;;;;;;;15.02;74.73;101238.97;4989947;28;20085;-58
2022/05/16 03:41:13;;;;;;;21.83;9.20;;;;;;;14.98;75.25;101237.50;4989605;28;20073;-59
2022/05/16 03:43:42;;;;;;;15.27;7.95;;;;;;;14.98;75.21;101244.59;4991654;28;20153;-59
2022/05/16 03:46:11;;;;;;;16.50;7.78;;;;;;;14.93;75.07;101234.38;4991809;28;20497;-59
2022/05/16 03:48:40;;;;;;;15.35;7.53;;;;;;;14.94;75.36;101241.31;4992142;28;20061;-57
2022/05/16 03:51:11;;;;;;;16.45;7.90;;;;;;;14.98;75.29;101239.28;4994346;28;20395;-58
2022/05/16 03:53:46;;;;;;;16.00;8.95;;;;;;;14.97;75.56;101235.81;4992007;28;20050;-58
2022/05/16 03:56:15;;;;;;;20.58;9.43;;;;;;;14.87;75.85;101230.41;4989704;28;20181;-58
2022/05/16 03:58:43;;;;;;;17.67;9.88;;;;;;;14.82;76.25;101232.53;4993957;28;20070;-58
2022/05/16 04:01:12;;;;;;;21.85;10.57;;;;;;;14.87;75.91;101229.53;4991524;28;20054;-58
2022/05/16 04:03:40;;;;;;;17.90;9.10;;;;;;;14.81;76.30;101230.03;4991961;28;20046;-58
2022/05/16 04:06:09;;;;;;;17.65;9.10;;;;;;;14.79;76.40;101247.81;4992655;28;20134;-57
2022/05/16 04:08:37;;;;;;;15.98;6.85;;;;;;;14.86;76.41;101239.28;4995434;28;20145;-59
2022/05/16 04:11:07;;;;;;;15.63;6.72;;;;;;;14.79;76.40;101242.53;4990061;28;20489;-59
2022/05/16 04:13:35;;;;;;;15.18;6.25;;;;;;;14.73;76.94;101238.53;4991645;28;20528;-58
2022/05/16 04:16:04;;;;;;;16.00;6.07;;;;;;;14.72;77.05;101233.38;4994993;28;20046;-59
2022/05/16 04:18:33;;;;;;;12.90;5.45;;;;;;;14.68;77.17;101245.97;4994856;28;20050;-59
2022/05/16 04:21:01;;;;;;;15.50;6.45;;;;;;;14.62;77.71;101241.97;4994690;28;20053;-58
2022/05/16 04:23:30;;;;;;;13.35;6.22;;;;;;;14.63;77.61;101242.84;4994712;28;20101;-58
2022/05/16 04:25:58;;;;;;;15.48;6.22;;;;;;;14.59;78.20;101236.91;4994217;28;20595;-58
2022/05/16 04:28:27;;;;;;;14.27;6.53;;;;;;;14.66;77.85;101240.81;4990101;28;20119;-59
2022/05/16 04:30:56;;;;;;;13.07;6.15;;;;;;;14.64;77.76;101239.25;4990230;28;20053;-58
2022/05/16 04:33:24;;;;;;;12.30;6.10;;;;;;;14.67;78.18;101241.66;4990699;28;20536;-58
2022/05/16 04:35:52;;;;;;;14.45;7.03;;;;;;;14.68;77.96;101244.19;4990509;28;20062;-57
2022/05/16 04:38:20;;;;;;;14.48;7.13;;;;;;;14.70;77.79;101244.09;4991395;28;20771;-58
2022/05/16 04:43:35;;;;;;;13.55;6.70;;;;;;;14.73;78.14;101240.34;4991407;28;20065;-59
2022/05/16 04:46:05;;;;;;;14.75;6.88;;;;;;;14.71;78.35;101237.81;4991970;28;20054;-58
2022/05/16 04:48:34;;;;;;;16.38;7.63;;;;;;;14.72;78.07;101236.84;4994014;28;20062;-59
2022/05/16 04:51:02;;;;;;;18.58;8.77;;;;;;;14.72;78.03;101241.31;4990053;28;20085;-58
2022/05/16 04:53:30;;;;;;;20.50;9.55;;;;;;;14.75;78.36;101233.13;4989694;28;20449;-58
2022/05/16 04:55:59;;;;;;;23.00;10.15;;;;;;;14.76;78.26;101232.16;4987817;28;20050;-59
2022/05/16 04:58:27;;;;;;;24.30;11.13;;;;;;;14.78;78.41;101240.81;4990754;28;20141;-59
2022/05/16 05:00:57;;;;;;;22.60;11.32;;;;;;;14.87;77.99;101241.00;4990022;28;20433;-59
2022/05/16 05:03:25;;;;;;;20.60;10.07;;;;;;;14.92;78.03;101237.97;4993274;28;20062;-59
2022/05/16 05:05:53;;;;;;;23.17;10.60;;;;;;;14.98;77.09;101248.09;4989809;28;20129;-59
2022/05/16 05:08:21;;;;;;;19.63;10.60;;;;;;;14.98;77.75;101242.81;4990364;28;20073;-59
2022/05/16 05:16:25;;;;;;;14.98;8.95;;;;;;;15.11;77.33;101247.97;4993900;28;20046;-58
2022/05/16 05:18:53;;;;;;;20.38;9.35;;;;;;;15.17;77.04;101238.69;4992531;28;20050;-59
2022/05/16 05:21:21;;;;;;;19.20;9.10;;;;;;;15.26;77.13;101243.28;4989997;28;20545;-57
2022/05/16 05:23:52;;;;;;;19.17;8.00;;;;;;;15.32;77.04;101250.72;4989621;28;20050;-59
2022/05/16 05:26:20;;;;;;;14.52;6.47;;;;;;;15.40;76.64;101254.59;4988360;28;20050;-59
2022/05/16 05:28:48;;;;;;;14.45;6.75;;;;;;;15.43;76.66;101252.53;4990074;28;20144;-58
2022/05/16 05:31:20;;;;;;;15.30;6.72;;;;;;;15.52;76.26;101243.84;4990020;28;20053;-58
2022/05/16 05:33:50;;;;;;;14.60;5.82;;;;;;;15.62;76.42;101251.91;4990006;28;20058;-60
2022/05/16 05:36:18;;;;;;;16.55;6.78;;;;;;;15.71;75.93;101251.19;4989648;28;20046;-59
2022/05/16 05:38:50;;;;;;;12.27;6.55;;;;;;;15.83;76.14;101251.22;4991501;28;20057;-58
2022/05/16 05:41:21;;;;;;;14.82;7.32;;;;;;;15.97;75.31;101253.56;4986872;28;20053;-59
2022/05/16 05:43:49;;;;;;;14.23;7.28;;;;;;;16.08;75.22;101247.38;4990331;28;20050;-59
2022/05/16 05:46:18;;;;;;;16.95;7.22;;;;;;;16.22;74.99;101255.06;4993213;28;20125;-59
2022/05/16 05:48:46;;;;;;;14.75;6.88;;;;;;;16.32;74.42;101257.78;4993206;28;20501;-59
2022/05/16 05:51:16;;;;;;;12.68;6.53;;;;;;;16.39;74.78;101261.59;4989743;28;20050;-59
2022/05/16 05:53:44;;;;;;;15.15;6.35;;;;;;;16.46;74.62;101253.97;4989657;28;20112;-59
2022/05/16 05:56:14;;;;;;;16.75;6.35;;;;;;;16.62;74.20;101250.88;4988415;28;20097;-59
2022/05/16 05:58:42;;;;;;;13.65;6.63;;;;;;;16.64;73.48;101259.53;4993266;28;20057;-60
2022/05/16 06:01:10;;;;;;;13.95;6.60;;;;;;;16.70;72.29;101248.41;4993077;28;20050;-60
2022/05/16 06:03:39;;;;;;;12.95;5.82;;;;;;;16.75;72.16;101242.69;4992896;28;20186;-60
2022/05/16 06:06:07;;;;;;;13.07;5.88;;;;;;;16.80;72.62;101240.50;4993166;28;20046;-60
2022/05/16 06:08:37;;;;;;;11.52;5.50;;;;;;;16.92;72.02;101241.31;4993134;28;20125;-59
2022/05/16 06:11:05;;;;;;;12.98;6.00;;;;;;;16.94;72.23;101233.22;4991358;28;20104;-60
2022/05/16 06:13:33;;;;;;;11.85;5.57;;;;;;;17.04;71.59;101234.06;4989712;28;20055;-58
2022/05/16 06:16:01;;;;;;;12.75;5.35;;;;;;;17.11;71.96;101223.75;4988818;28;20046;-59
2022/05/16 06:18:29;;;;;;;10.55;5.15;;;;;;;17.25;71.61;101234.03;4989819;28;20148;-58
2022/05/16 06:20:57;;;;;;;10.52;4.80;;;;;;;17.29;71.74;101231.94;4988680;28;20434;-57
2022/05/16 06:23:26;;;;;;;12.52;5.57;;;;;;;17.36;72.36;101235.75;4990727;28;20402;-58
2022/05/16 06:25:57;;;;;;;13.55;5.72;;;;;;;17.42;71.34;101229.06;4990311;28;20058;-58
2022/05/16 06:28:29;;;;;;;10.90;5.53;;;;;;;17.50;72.28;101237.19;4989603;28;20058;-58
2022/05/16 06:30:57;;;;;;;13.10;6.15;;;;;;;17.52;71.89;101235.22;4991656;28;20046;-58
2022/05/16 06:33:28;;;;;;;12.95;5.55;;;;;;;17.59;72.28;101241.69;4989472;28;20116;-58
2022/05/16 06:35:57;;;;;;;9.60;5.70;;;;;;;17.65;72.15;101235.00;4989728;28;20086;-58
2022/05/16 06:38:28;;;;;;;11.05;5.57;;;;;;;17.69;72.27;101237.22;4991031;28;20532;-59
2022/05/16 06:40:58;;;;;;;12.75;5.47;;;;;;;17.77;72.29;101235.72;4987314;28;20149;-58
2022/05/16 06:43:28;;;;;;;10.27;5.68;;;;;;;17.86;71.22;101242.84;4989359;28;20525;-58
2022/05/16 06:45:57;;;;;;;14.50;6.43;;;;;;;17.99;71.32;101247.97;4988872;28;20077;-58
2022/05/16 06:48:25;;;;;;;11.52;5.30;;;;;;;18.05;69.71;101250.91;4989538;28;20069;-60
2022/05/16 06:50:54;;;;;;;10.52;4.90;;;;;;;18.17;69.07;101259.56;4990309;28;20042;-58
2022/05/16 06:53:24;;;;;;;11.93;4.90;;;;;;;18.21;68.86;101265.47;4993734;28;20449;-59
2022/05/16 06:55:52;;;;;;;15.00;4.78;;;;;;;18.41;68.32;101272.47;4994793;28;20405;-60
2022/05/16 06:58:21;;;;;;;9.68;4.50;;;;;;;18.66;68.22;101270.19;4995737;28;20070;-59
2022/05/16 07:00:50;;;;;;;11.25;4.85;;;;;;;18.94;66.66;101272.13;4992716;28;20553;-58
2022/05/16 07:03:18;;;;;;;11.15;5.10;;;;;;;19.08;65.84;101269.84;4993976;28;20051;-59
2022/05/16 07:05:48;;;;;;;14.85;4.85;;;;;;;19.11;65.73;101278.56;4996085;28;20133;-58
2022/05/16 07:08:16;;;;;;;10.10;5.05;;;;;;;19.25;65.40;101278.06;4993355;28;20043;-59
2022/05/16 07:10:46;;;;;;;11.05;5.15;;;;;;;19.31;65.46;101290.81;4990572;28;20509;-59
2022/05/16 07:13:22;;;;;;;11.75;5.07;;;;;;;19.33;66.17;101296.84;4992747;28;20532;-60
2022/05/16 07:15:50;;;;;;;11.80;4.88;;;;;;;19.44;66.26;101295.81;4992332;28;20477;-60
2022/05/16 07:18:19;;;;;;;11.35;5.22;;;;;;;19.63;65.93;101305.56;4992518;28;20132;-58
2022/05/16 07:20:47;;;;;;;11.27;4.93;;;;;;;19.76;64.48;101306.03;4990772;28;20050;-59
2022/05/16 07:23:16;;;;;;;13.38;5.85;;;;;;;19.84;65.47;101309.84;4995229;28;20046;-59
2022/05/16 07:28:31;;;;;;;16.17;5.63;;;;;;;20.01;64.86;101300.19;4995815;28;20124;-59
2022/05/16 07:30:59;;;;;;;14.98;5.63;;;;;;;20.08;64.20;101294.09;4993625;28;20941;-60
2022/05/16 07:33:27;;;;;;;15.50;5.88;;;;;;;20.08;65.00;101301.25;4992702;28;20065;-60
2022/05/16 07:35:55;;;;;;;12.27;5.30;;;;;;;20.12;64.92;101299.94;4994739;28;20129;-60
2022/05/16 07:38:26;;;;;;;12.55;5.60;;;;;;;20.10;64.71;101308.13;4992245;28;20053;-60
2022/05/16 07:40:54;;;;;;;12.40;5.50;;;;;;;20.04;64.91;101306.06;4988856;28;20126;-61
2022/05/16 07:43:23;;;;;;;12.02;5.22;;;;;;;20.11;64.16;101308.97;4982179;28;20093;-60
2022/05/16 07:45:53;;;;;;;13.60;5.05;;;;;;;20.09;64.98;101322.44;4972622;28;20081;-61
2022/05/16 07:48:22;;;;;;;18.02;6.72;;;;;;;20.09;65.23;101327.78;4991276;28;20042;-60
2022/05/16 07:50:50;;;;;;;13.50;5.20;;;;;;;20.11;65.49;101338.34;4991755;28;20057;-60
2022/05/16 07:53:19;;;;;;;14.13;5.38;;;;;;;20.16;66.82;101343.22;4992402;28;20096;-60
2022/05/16 07:55:52;;;;;;;10.68;5.22;;;;;;;20.18;67.53;101347.41;4987203;28;20046;-59
2022/05/16 07:58:21;;;;;;;11.40;5.80;;;;;;;20.26;66.45;101338.66;4972381;28;20047;-59
2022/05/16 08:00:56;;;;;;;13.02;5.88;;;;;;;20.33;67.86;101339.72;4975142;28;20137;-58
2022/05/16 08:03:27;;;;;;;12.93;5.57;;;;;;;20.42;68.02;101336.16;4974791;28;20051;-59
2022/05/16 08:05:56;;;;;;;15.23;6.32;;;;;;;20.40;68.00;101339.97;4973813;28;20479;-59
2022/05/16 08:11:11;;;;;;;12.02;5.55;;;;;;;20.60;67.15;101340.63;4975139;28;20059;-59
2022/05/16 08:13:41;;;;;;;12.68;6.10;;;;;;;20.68;67.64;101340.75;4975103;28;20089;-59
2022/05/16 08:16:11;;;;;;;12.50;5.60;;;;;;;20.70;67.72;101346.75;4971941;28;20046;-59
2022/05/16 08:18:40;;;;;;;13.63;5.72;;;;;;;20.81;67.52;101342.19;4972079;28;20105;-59
2022/05/16 08:21:10;;;;;;;13.95;6.22;;;;;;;20.89;67.31;101343.06;4971100;28;20062;-59
2022/05/16 08:23:39;;;;;;;10.10;5.13;;;;;;;21.05;66.22;101339.69;4971738;28;20976;-59
2022/05/16 08:26:08;;;;;;;12.88;4.80;;;;;;;21.16;65.08;101340.41;4970033;28;20529;-60
2022/05/16 08:28:38;;;;;;;10.00;5.00;;;;;;;21.21;64.67;101336.25;4972435;28;20090;-59
2022/05/16 08:31:07;;;;;;;12.70;4.75;;;;;;;21.29;65.20;101330.13;4972245;28;20054;-59
2022/05/16 08:33:39;;;;;;;11.77;4.68;;;;;;;21.24;66.11;101332.41;4974193;28;20106;-58
2022/05/16 08:41:52;;;;;;;12.52;4.55;;;;;;;21.41;65.01;101344.91;4971403;28;20109;-59
2022/05/16 08:44:23;;;;;;;10.18;4.10;;;;;;;21.49;64.54;101345.91;4971813;28;20046;-59
2022/05/16 08:47:00;;;;;;;11.85;4.05;;;;;;;21.50;64.84;101351.16;4971408;28;20117;-58
2022/05/16 08:49:35;;;;;;;7.93;3.80;;;;;;;21.71;65.58;101350.75;4973464;28;20062;-58
2022/05/16 08:52:08;;;;;;;9.77;3.83;;;;;;;21.63;63.62;101353.41;4970978;28;20097;-58
2022/05/16 08:54:45;;;;;;;8.45;3.55;;;;;;;21.69;64.37;101351.91;4973963;28;20398;-59
2022/05/16 08:57:18;;;;;;;12.73;3.95;;;;;;;21.76;62.62;101351.13;4974351;28;20113;-58
2022/05/16 08:59:57;;;;;;;9.82;3.92;;;;;;;21.93;63.83;101348.50;4970620;28;20479;-58
2022/05/16 09:02:27;;;;;;;8.38;3.70;;;;;;;22.12;60.58;101358.91;4970394;28;20057;-58
2022/05/16 09:05:05;;;;;;;7.88;3.78;;;;;;;22.24;61.74;101348.72;4970129;28;20696;-58
2022/05/16 09:07:40;;;;;;;8.30;3.78;;;;;;;22.43;60.76;101350.31;4969312;28;20060;-58
2022/05/16 09:10:10;;;;;;;7.82;3.63;;;;;;;22.52;59.62;101350.31;4968697;28;20063;-59
2022/05/16 09:12:44;;;;;;;7.97;3.28;;;;;;;22.67;59.06;101351.31;4969136;28;20545;-58
2022/05/16 09:15:25;;;;;;;8.10;3.83;;;;;;;22.94;59.22;101346.63;4982382;28;20453;-58
2022/05/16 09:18:17;;;;;;;9.55;3.53;;;;;;;23.19;56.90;101350.13;4989696;28;20049;-58
2022/05/16 09:20:58;;;;;;;8.48;3.50;;;;;;;23.21;56.93;101344.59;4984592;28;20441;-59
2022/05/16 09:23:39;;;;;;;7.88;3.90;;;;;;;23.22;56.03;101344.41;4990087;28;20073;-58
2022/05/16 09:26:13;;;;;;;7.28;3.50;;;;;;;23.39;56.13;101344.38;4986776;28;20038;-58
2022/05/16 09:28:46;;;;;;;9.73;3.97;;;;;;;23.57;56.93;101341.44;4970489;28;20054;-58
2022/05/16 09:31:19;;;;;;;9.68;3.63;;;;;;;23.79;56.04;101342.53;4969517;28;20585;-59
2022/05/16 09:33:48;;;;;;;;;;;;;;;23.72;55.27;101345.06;4969942;28;20038;-59
2022/05/16 09:36:23;;;;;;;9.10;3.78;;;;;;;23.91;54.16;101343.84;4969190;28;19922;-59
2022/05/16 09:38:51;;;;;;;9.55;3.75;;;;;;;24.33;54.48;101344.44;4969613;28;20050;-59
2022/05/16 09:41:26;;;;;;;10.10;3.90;;;;;;;24.63;52.96;101347.25;4967935;28;20038;-59
2022/05/16 09:44:03;;;;;;;10.07;3.40;;;;;;;24.86;53.17;101341.84;4969772;28;20082;-59
2022/05/16 09:46:35;;;;;;;11.02;3.72;;;;;;;25.19;52.09;101335.31;4970028;28;20061;-59
2022/05/16 09:49:13;;;;;;;8.73;3.40;;;;;;;25.40;51.70;101339.97;4969302;28;20061;-59
2022/05/16 09:51:49;;;;;;;8.50;3.60;;;;;;;25.67;49.76;101343.00;4973686;28;20084;-58
2022/05/16 09:54:25;;;;;;;10.05;3.17;;;;;;;25.92;50.71;101346.19;4973583;28;20526;-58
2022/05/16 09:57:13;;;;;;;12.23;3.60;;;;;;;26.17;50.68;101343.22;4971130;28;20058;-58
2022/05/16 09:59:45;;;;;;;9.00;3.47;;;;;;;26.50;48.62;101343.53;4969603;28;20050;-59
2022/05/16 10:02:19;;;;;;;8.35;3.65;;;;;;;26.17;46.99;101344.03;4969877;28;20498;-59
2022/05/16 10:04:56;;;;;;;12.38;4.00;;;;;;;26.08;47.89;101346.03;4970321;28;20051;-58
2022/05/16 10:07:30;;;;;;;;;;;;;;;26.61;48.18;101345.72;4970810;28;20121;-59
2022/05/16 10:09:59;;;;;;;8.85;3.03;;;;;;;27.12;49.35;101338.44;4968998;28;19926;-60
2022/05/16 10:12:29;;;;;;;10.65;3.80;;;;;;;27.25;45.67;101346.59;4973033;28;20125;-59
2022/05/16 10:14:58;;;;;;;7.78;3.17;;;;;;;27.48;46.21;101351.75;4970908;28;20047;-59
2022/05/16 10:17:33;;;;;;;7.95;3.50;;;;;;;27.86;43.91;101344.22;4971740;28;20090;-58
2022/05/16 10:20:10;;;;;;;9.07;3.47;;;;;;;27.92;44.11;101349.66;4970568;28;20074;-59
2022/05/16 10:22:40;;;;;;;10.63;3.55;;;;;;;28.02;44.18;101351.16;4970186;28;20058;-59
2022/05/16 10:25:34;;;;;;;9.35;3.90;;;;;;;27.87;43.99;101353.97;4967531;28;20047;-59
2022/05/16 10:28:05;;;;;;;7.75;3.60;;;;;;;28.02;43.25;101356.56;4973705;28;20519;-59
2022/05/16 10:33:24;;;;;;;11.03;4.30;;;;;;;27.95;44.17;101361.91;4979878;28;20046;-59
2022/05/16 10:33:26;;;;;;;8.20;3.75;;;;;;;28.21;41.92;101361.19;4991027;28;20510;-58
2022/05/16 10:35:59;;;;;;;11.02;3.60;;;;;;;28.34;43.49;101352.25;4988237;28;20454;-58
2022/05/16 10:38:38;;;;;;;22.15;5.45;;;;;;;28.55;42.61;101356.66;4987709;28;20058;-59
2022/05/16 10:41:13;;;;;;;10.45;3.90;;;;;;;28.63;42.19;101351.06;4982918;28;20065;-61
2022/05/16 10:44:01;;;;;;;11.05;4.55;;;;;;;28.74;41.04;101351.47;4986836;28;20054;-59
2022/05/16 10:46:35;;;;;;;9.40;4.20;;;;;;;28.79;40.99;101349.81;4984836;28;20145;-59
2022/05/16 10:49:05;;;;;;;10.75;4.07;;;;;;;28.35;41.95;101351.22;4985970;28;20054;-69
2022/05/16 10:51:41;;;;;;;9.60;3.58;;;;;;;28.42;42.17;101360.16;4992399;28;20469;-60
2022/05/16 10:54:16;;;;;;;9.15;3.53;;;;;;;28.74;43.00;101365.84;4985287;28;20057;-59
2022/05/16 10:57:07;;;;;;;7.47;3.13;;;;;;;28.78;42.12;101377.06;4967555;28;20433;-59
2022/05/16 11:00:07;;;;;;;8.68;3.90;;;;;;;28.96;42.77;101382.69;4951840;28;20489;-59
2022/05/16 11:03:00;;;;;;;8.18;3.10;;;;;;;29.12;42.17;101378.72;4970396;28;20051;-60
2022/05/16 11:05:39;;;;;;;9.25;3.08;;;;;;;29.08;42.19;101387.47;4971193;28;20053;-60
2022/05/16 11:08:16;;;;;;;9.13;3.42;;;;;;;29.08;41.82;101377.50;4973215;28;20066;-60
2022/05/16 11:10:51;;;;;;;9.25;3.22;;;;;;;29.44;42.05;101372.66;4967703;28;20055;-59
2022/05/16 11:13:26;;;;;;;10.85;3.17;;;;;;;29.63;41.22;101362.78;4970949;28;20054;-58
2022/05/16 11:15:57;;;;;;;11.25;4.13;;;;;;;29.98;38.64;101367.84;4970968;28;20053;-59
2022/05/16 11:18:35;;;;;;;9.38;3.72;;;;;;;30.28;37.86;101359.13;4972638;28;20106;-59
2022/05/16 11:21:14;;;;;;;7.15;3.05;;;;;;;30.41;39.02;101363.63;4973058;28;20054;-60
2022/05/16 11:23:51;;;;;;;8.82;3.47;;;;;;;30.26;38.37;101359.34;4971794;28;20062;-59
2022/05/16 11:26:26;;;;;;;8.18;3.85;;;;;;;30.18;37.68;101355.00;4969586;28;20510;-59
2022/05/16 11:29:18;;;;;;;12.73;3.67;;;;;;;30.04;38.93;101366.16;4970810;28;20051;-60
2022/05/16 11:32:06;;;;;;;12.77;3.42;;;;;;;29.81;38.84;101362.91;4970267;28;20390;-59
2022/05/16 11:34:53;;;;;;;7.75;2.95;;;;;;;29.65;40.23;101361.50;4973086;28;20051;-60
2022/05/16 11:37:34;;;;;;;8.45;3.17;;;;;;;29.61;39.13;101359.44;4973186;28;20082;-59
2022/05/16 11:40:07;;;;;;;7.03;3.30;;;;;;;29.62;40.00;101374.66;4983843;28;20050;-60
2022/05/16 11:42:52;;;;;;;7.63;3.25;;;;;;;29.51;39.35;101374.28;4989977;28;20058;-59
2022/05/16 11:45:32;;;;;;;6.78;2.70;;;;;;;29.39;42.86;101375.97;4991281;28;20495;-59
2022/05/16 11:48:16;;;;;;;5.55;2.67;;;;;;;29.24;42.92;101383.50;4991117;28;20397;-59
2022/05/16 11:51:18;;;;;;;11.50;4.10;;;;;;;28.84;43.36;101393.31;4983786;28;20453;-58
2022/05/16 11:53:50;;;;;;;20.67;9.37;;;;;;;28.41;47.75;101400.94;4988160;28;20046;-59
2022/05/16 12:02:14;;;;;;;24.42;12.00;;;;;;;25.67;70.05;101462.34;4971567;28;20565;-61
2022/05/16 12:04:45;;;;;;;25.27;10.25;;;;;;;25.14;74.06;101481.16;4971106;28;20062;-64
2022/05/16 12:07:21;;;;;;;26.08;10.48;;;;;;;24.35;81.54;101471.41;4970720;28;20058;-64
2022/05/16 12:09:56;;;;;;;19.90;6.72;;;;;;;24.44;78.80;101470.34;4969444;28;20047;-63
2022/05/16 12:12:35;;;;;;;14.98;4.93;;;;;;;24.55;85.08;101463.72;4971114;28;20082;-62
2022/05/16 12:15:32;;;;;;;12.50;6.60;;;;;;;24.46;86.13;101454.06;4970424;28;20054;-61